Aviation Digital Data Service (ADDS)

Output produced by METARs form (1942 UTC 15 October 2018)
found at http://www.aviationweather.gov/metar/data/
 
SAWH 151900Z 23020G33KT 6000 +RA BKN012 BKN025 00/M01 Q0976
TAF SAWH 151700Z 1518/1618 36017KT 9999 RA BKN010 BKN025 TX06/1518Z TN01/1612Z 
     TEMPO 1518/1520 VRB05KT 6000 +RA 
     BECMG 1522/1606 25015KT 9999 NSW SCT030 BKN080 
     BECMG 1606/1612 27015KT -RA BKN030 BKN050